Time;durP1;ratioP1;P1;durP2;ratioP2;P2;SDS_P1;SDS_P2;PMS_P1;PMS_P2;Temp;Humidity;BMP_temperature;BMP_pressure;BME280_temperature;BME280_humidity;BME280_pressure;Samples;Min_cycle;Max_cycle;Signal;HPM_P1;HPM_P2
2021/01/30 00:00:42;;;;;;;16.63;15.52;;;3.60;86.70;;;;;;5150429;28;20042;-72
2021/01/30 00:03:15;;;;;;;16.52;15.43;;;3.60;86.70;;;;;;5166657;28;20664;-71
2021/01/30 00:05:47;;;;;;;16.70;15.50;;;3.60;86.40;;;;;;5151924;28;20526;-73
2021/01/30 00:08:18;;;;;;;17.60;16.40;;;3.70;86.50;;;;;;5147627;28;20050;-72
2021/01/30 00:10:49;;;;;;;16.88;15.68;;;3.60;86.70;;;;;;5151371;28;20065;-73
2021/01/30 00:13:21;;;;;;;16.83;15.63;;;3.60;86.50;;;;;;5179764;28;20075;-72
2021/01/30 00:15:53;;;;;;;16.27;15.18;;;3.60;87.30;;;;;;5152348;28;20046;-72
2021/01/30 00:18:24;;;;;;;16.40;15.30;;;3.60;87.00;;;;;;5153307;28;20050;-73
2021/01/30 00:20:56;;;;;;;16.70;15.50;;;3.60;86.90;;;;;;5183620;28;20051;-71
2021/01/30 00:23:27;;;;;;;16.88;15.68;;;3.60;88.40;;;;;;5151434;28;20558;-71
2021/01/30 00:25:59;;;;;;;16.40;15.30;;;3.50;87.80;;;;;;5180668;28;20098;-73
2021/01/30 00:28:30;;;;;;;16.88;15.77;;;3.60;87.60;;;;;;5152009;28;20042;-71
2021/01/30 00:31:01;;;;;;;16.15;15.05;;;3.60;87.30;;;;;;5178319;28;20068;-72
2021/01/30 00:33:33;;;;;;;16.75;15.65;;;3.60;87.00;;;;;;5183305;28;20049;-73
2021/01/30 00:36:05;;;;;;;17.05;15.85;;;3.60;87.00;;;;;;5180573;28;20047;-73
2021/01/30 00:38:36;;;;;;;16.70;15.60;;;3.60;86.80;;;;;;5153502;28;20050;-72
2021/01/30 00:41:08;;;;;;;16.63;15.52;;;3.70;86.50;;;;;;5150290;28;20249;-72
2021/01/30 00:43:39;;;;;;;16.85;15.63;;;3.70;86.60;;;;;;5146766;28;20065;-72
2021/01/30 00:46:10;;;;;;;16.30;15.20;;;3.70;86.50;;;;;;5179400;28;20047;-73
2021/01/30 00:48:43;;;;;;;16.60;15.50;;;3.70;86.40;;;;;;5151298;28;20046;-72
2021/01/30 00:51:21;;;;;;;17.15;15.95;;;3.60;87.00;;;;;;5145656;28;20161;-71
2021/01/30 00:53:57;;;;;;;16.30;15.20;;;3.60;87.10;;;;;;5145940;28;20047;-73
2021/01/30 00:56:29;;;;;;;16.90;15.70;;;3.60;86.80;;;;;;5160282;28;20133;-72
2021/01/30 00:59:00;;;;;;;19.27;17.67;;;3.60;86.40;;;;;;5145152;28;20058;-72
2021/01/30 01:01:39;;;;;;;16.83;15.63;;;3.70;86.20;;;;;;5175698;28;20511;-72
2021/01/30 01:04:18;;;;;;;17.05;15.85;;;3.60;86.50;;;;;;5138288;28;20121;-73
2021/01/30 01:06:49;;;;;;;17.38;16.17;;;3.60;86.40;;;;;;5145039;28;20050;-73
2021/01/30 01:09:21;;;;;;;17.17;15.98;;;3.60;86.00;;;;;;5145872;28;20417;-72
2021/01/30 01:11:53;;;;;;;18.02;16.73;;;3.60;86.10;;;;;;5176666;28;20051;-72
2021/01/30 01:14:26;;;;;;;17.95;16.67;;;3.60;85.60;;;;;;5177230;28;20046;-72
2021/01/30 01:16:57;;;;;;;17.23;16.02;;;3.60;85.10;;;;;;5176052;28;20054;-71
2021/01/30 01:19:29;;;;;;;17.13;15.93;;;3.60;86.10;;;;;;5177695;28;20405;-72
2021/01/30 01:22:00;;;;;;;17.02;15.88;;;3.60;85.90;;;;;;5151623;28;20292;-72
2021/01/30 01:24:32;;;;;;;16.85;15.65;;;3.60;85.90;;;;;;5160430;28;20049;-73
2021/01/30 01:27:04;;;;;;;17.10;15.90;;;3.60;85.70;;;;;;5151939;28;20085;-72
2021/01/30 01:29:35;;;;;;;16.95;15.75;;;3.60;85.80;;;;;;5176724;28;20830;-72
2021/01/30 01:32:07;;;;;;;16.90;15.70;;;3.60;85.60;;;;;;5159438;28;20685;-73
2021/01/30 01:34:39;;;;;;;17.23;16.02;;;3.60;86.10;;;;;;5142558;28;20046;-73
2021/01/30 01:37:10;;;;;;;17.40;16.20;;;3.60;85.80;;;;;;5146736;28;20173;-73
2021/01/30 01:39:41;;;;;;;16.83;15.63;;;3.60;85.40;;;;;;5172030;28;20055;-72
2021/01/30 01:42:25;;;;;;;16.88;15.68;;;3.60;85.80;;;;;;5174350;28;20588;-72
2021/01/30 01:44:56;;;;;;;17.63;16.42;;;3.70;85.70;;;;;;5158282;28;20039;-72
2021/01/30 01:47:38;;;;;;;17.52;16.33;;;3.70;85.20;;;;;;5158866;28;20217;-72
2021/01/30 01:50:44;;;;;;;17.30;16.10;;;3.60;85.00;;;;;;5145242;28;20047;-72
2021/01/30 01:53:26;;;;;;;17.05;15.88;;;3.70;85.30;;;;;;5161613;28;20054;-72
2021/01/30 01:56:15;;;;;;;17.20;16.00;;;3.70;84.90;;;;;;5146506;28;20054;-72
2021/01/30 01:58:51;;;;;;;17.15;15.95;;;3.70;85.40;;;;;;5140307;28;20522;-73
2021/01/30 02:01:23;;;;;;;17.00;15.88;;;3.70;85.20;;;;;;5180221;28;20066;-72
2021/01/30 02:03:57;;;;;;;17.13;15.93;;;3.70;84.50;;;;;;5147154;28;20042;-73
2021/01/30 02:06:29;;;;;;;16.75;15.52;;;3.60;85.00;;;;;;5147206;28;20380;-73
2021/01/30 02:09:01;;;;;;;17.02;15.82;;;3.70;85.10;;;;;;5164610;28;20053;-72
2021/01/30 02:11:32;;;;;;;17.27;16.08;;;3.70;84.70;;;;;;5147544;28;20120;-73
2021/01/30 02:14:08;;;;;;;16.58;15.48;;;3.70;85.20;;;;;;5144812;28;20058;-72
2021/01/30 02:16:47;;;;;;;17.10;15.90;;;3.70;85.60;;;;;;5147684;28;20055;-72
2021/01/30 02:19:56;;;;;;;17.13;15.93;;;3.70;85.50;;;;;;5164108;28;20065;-72
2021/01/30 02:22:43;;;;;;;16.55;15.45;;;3.70;85.10;;;;;;5172824;28;20722;-72
2021/01/30 02:25:45;;;;;;;16.75;15.55;;;3.70;85.00;;;;;;5145446;28;20046;-72
2021/01/30 02:28:45;;;;;;;16.77;15.48;;;3.70;84.80;;;;;;5185182;28;20042;-73
2021/01/30 02:31:46;;;;;;;17.00;15.80;;;3.70;84.30;;;;;;5176838;28;20785;-71
2021/01/30 02:34:29;;;;;;;17.15;15.98;;;3.70;83.90;;;;;;5143285;28;20055;-71
2021/01/30 02:37:09;;;;;;;16.98;15.77;;;3.70;84.70;;;;;;5177088;28;20069;-71
2021/01/30 02:39:48;;;;;;;17.25;16.05;;;3.70;83.30;;;;;;5139387;28;20464;-73
2021/01/30 02:42:42;;;;;;;16.60;15.38;;;3.70;82.90;;;;;;5176180;28;20120;-72
2021/01/30 02:45:26;;;;;;;16.77;15.52;;;3.80;83.40;;;;;;5145431;28;20058;-72
2021/01/30 02:48:23;;;;;;;16.50;15.30;;;3.80;83.60;;;;;;5140373;28;20125;-72
2021/01/30 02:50:59;;;;;;;17.00;15.80;;;3.80;83.00;;;;;;5158355;28;20046;-72
2021/01/30 02:53:36;;;;;;;16.73;15.43;;;3.80;83.30;;;;;;5157074;28;20050;-71
2021/01/30 02:56:08;;;;;;;17.13;15.88;;;3.80;83.60;;;;;;5147654;28;20914;-72
2021/01/30 02:58:54;;;;;;;16.52;15.32;;;3.80;83.50;;;;;;5144782;28;20137;-72
2021/01/30 03:01:26;;;;;;;16.38;15.13;;;3.80;83.10;;;;;;5147578;28;20050;-71
2021/01/30 03:04:01;;;;;;;15.65;14.45;;;3.80;83.00;;;;;;5143659;28;20043;-72
2021/01/30 03:07:03;;;;;;;15.30;14.13;;;3.90;82.80;;;;;;5141488;28;20422;-71
2021/01/30 03:09:40;;;;;;;15.95;14.85;;;3.80;82.60;;;;;;5126496;28;20202;-73
2021/01/30 03:12:50;;;;;;;16.10;14.65;;;3.80;83.60;;;;;;5150730;28;20101;-72
2021/01/30 03:15:28;;;;;;;15.82;14.52;;;3.70;84.40;;;;;;5155759;28;20513;-71
2021/01/30 03:18:02;;;;;;;15.07;13.98;;;3.70;83.50;;;;;;5178462;28;20086;-71
2021/01/30 03:20:37;;;;;;;15.70;14.60;;;3.60;82.40;;;;;;5172130;28;20054;-71
2021/01/30 03:23:12;;;;;;;15.93;14.73;;;3.60;83.00;;;;;;5144186;28;20047;-72
2021/01/30 03:25:46;;;;;;;15.52;14.43;;;3.70;81.90;;;;;;5145567;28;20063;-72
2021/01/30 03:28:17;;;;;;;15.55;14.43;;;3.70;82.80;;;;;;5159272;28;20082;-72
2021/01/30 03:30:49;;;;;;;15.73;14.63;;;3.70;82.80;;;;;;5153710;28;20063;-71
2021/01/30 03:33:20;;;;;;;15.50;14.40;;;3.70;83.30;;;;;;5175936;28;20054;-72
2021/01/30 03:35:52;;;;;;;14.95;13.85;;;3.70;82.40;;;;;;5177757;28;20063;-72
2021/01/30 03:38:24;;;;;;;15.52;14.43;;;3.70;80.30;;;;;;5180245;28;20457;-72
2021/01/30 03:40:55;;;;;;;15.57;14.48;;;3.70;81.80;;;;;;5179795;28;20043;-71
2021/01/30 03:43:27;;;;;;;16.20;14.98;;;3.70;80.60;;;;;;5177950;28;20136;-71
2021/01/30 03:45:58;;;;;;;15.88;14.60;;;3.70;80.70;;;;;;5149209;28;20061;-71
2021/01/30 03:48:30;;;;;;;15.05;13.90;;;3.70;80.70;;;;;;5145744;28;20046;-70
2021/01/30 03:51:02;;;;;;;16.17;14.85;;;3.70;82.10;;;;;;5148796;28;20881;-69
2021/01/30 03:53:33;;;;;;;15.60;14.30;;;3.70;82.20;;;;;;5149305;28;20046;-71
2021/01/30 03:56:05;;;;;;;15.40;14.30;;;3.70;79.10;;;;;;5179299;28;20220;-71
2021/01/30 03:58:39;;;;;;;15.95;14.85;;;3.70;80.70;;;;;;5161155;28;20051;-70
2021/01/30 04:01:11;;;;;;;15.77;14.68;;;3.70;81.30;;;;;;5148221;28;20090;-70
2021/01/30 04:03:42;;;;;;;15.23;14.05;;;3.70;80.50;;;;;;5177546;28;20121;-70
2021/01/30 04:06:15;;;;;;;15.70;14.60;;;3.60;82.10;;;;;;5146288;28;20042;-70
2021/01/30 04:08:46;;;;;;;15.32;14.23;;;3.60;82.70;;;;;;5172426;28;20447;-71
2021/01/30 04:11:27;;;;;;;15.35;14.25;;;3.60;82.50;;;;;;5149730;28;20101;-71
2021/01/30 04:13:59;;;;;;;;;;;3.60;80.10;;;;;;5143325;28;20140;-71
2021/01/30 04:16:30;;;;;;;15.38;14.27;;;3.60;82.50;;;;;;5146596;28;19922;-70
2021/01/30 04:19:03;;;;;;;15.43;14.27;;;3.60;82.80;;;;;;5143786;28;20706;-71
2021/01/30 04:21:35;;;;;;;15.50;14.40;;;3.60;82.90;;;;;;5180446;28;20034;-71
2021/01/30 04:24:07;;;;;;;15.68;14.57;;;3.50;83.10;;;;;;5161000;28;20466;-72
2021/01/30 04:26:38;;;;;;;15.65;14.55;;;3.50;83.30;;;;;;5146292;28;20067;-70
2021/01/30 04:29:10;;;;;;;15.30;14.20;;;3.50;83.40;;;;;;5175089;28;20077;-70
2021/01/30 04:31:41;;;;;;;15.57;14.48;;;3.50;83.30;;;;;;5159591;28;20042;-73
2021/01/30 04:34:13;;;;;;;15.88;14.73;;;3.50;83.10;;;;;;5178935;28;20050;-74
2021/01/30 04:36:44;;;;;;;15.05;13.95;;;3.40;84.30;;;;;;5147131;28;20387;-71
2021/01/30 04:39:16;;;;;;;16.15;14.90;;;3.30;84.60;;;;;;5159460;28;20046;-70
2021/01/30 04:41:59;;;;;;;15.02;13.93;;;3.40;84.60;;;;;;5145822;28;20051;-71
2021/01/30 04:44:46;;;;;;;15.90;14.80;;;3.30;84.40;;;;;;5147854;28;20038;-71
2021/01/30 04:47:51;;;;;;;15.88;14.63;;;3.30;84.60;;;;;;5146642;28;20058;-71
2021/01/30 04:50:41;;;;;;;15.50;14.32;;;3.20;85.30;;;;;;5148578;28;20729;-71
2021/01/30 04:53:31;;;;;;;15.88;14.77;;;3.20;85.60;;;;;;5165348;28;20050;-73
2021/01/30 04:56:28;;;;;;;15.48;14.38;;;3.20;85.50;;;;;;5143167;28;20042;-73
2021/01/30 04:59:28;;;;;;;15.65;14.55;;;3.20;85.40;;;;;;5128304;28;20151;-73
2021/01/30 05:02:21;;;;;;;15.70;14.57;;;3.20;84.80;;;;;;5144358;28;20078;-72
2021/01/30 05:04:56;;;;;;;15.50;14.40;;;3.10;85.30;;;;;;5173983;28;20647;-73
2021/01/30 05:07:50;;;;;;;15.60;14.40;;;3.10;85.00;;;;;;5145499;28;20047;-73
2021/01/30 05:10:37;;;;;;;15.55;14.45;;;3.20;85.20;;;;;;5147188;28;20054;-72
2021/01/30 05:13:41;;;;;;;21.08;18.98;;;3.20;84.90;;;;;;5145416;28;20051;-73
2021/01/30 05:17:02;;;;;;;19.52;17.50;;;3.20;85.10;;;;;;5145400;28;20042;-73
2021/01/30 05:19:40;;;;;;;19.45;17.65;;;3.20;85.20;;;;;;5112057;28;20142;-71
2021/01/30 05:22:15;;;;;;;17.75;16.23;;;3.10;84.90;;;;;;5115017;28;20527;-71
2021/01/30 05:24:47;;;;;;;16.15;14.95;;;3.10;85.00;;;;;;5136245;28;20058;-70
2021/01/30 05:27:38;;;;;;;17.27;15.77;;;3.20;85.10;;;;;;5174839;28;20105;-70
2021/01/30 05:30:35;;;;;;;20.13;18.33;;;3.10;85.10;;;;;;5175274;28;20513;-70
2021/01/30 05:33:18;;;;;;;17.55;16.05;;;3.10;85.00;;;;;;5180325;28;20043;-72
2021/01/30 05:36:01;;;;;;;16.67;15.27;;;3.10;84.70;;;;;;5137522;28;20049;-71
2021/01/30 05:39:06;;;;;;;15.82;14.63;;;3.10;84.80;;;;;;5160861;28;20364;-70
2021/01/30 05:41:54;;;;;;;15.48;14.38;;;3.10;85.30;;;;;;5155632;28;20051;-70
2021/01/30 05:44:48;;;;;;;16.77;15.48;;;3.10;85.10;;;;;;5161196;28;20046;-70
2021/01/30 05:47:24;;;;;;;16.00;14.70;;;3.10;85.50;;;;;;5142127;28;20059;-72
2021/01/30 05:50:35;;;;;;;15.73;14.52;;;3.10;85.20;;;;;;5144254;28;20067;-71
2021/01/30 05:53:08;;;;;;;16.40;15.00;;;3.00;85.10;;;;;;5140245;28;20547;-73
2021/01/30 05:55:40;;;;;;;15.80;14.50;;;3.00;85.10;;;;;;5143076;28;20097;-70
2021/01/30 05:58:17;;;;;;;15.95;14.80;;;3.10;85.40;;;;;;5181112;28;20047;-71
2021/01/30 06:00:50;;;;;;;16.23;15.05;;;3.10;85.30;;;;;;5176289;28;20050;-70
2021/01/30 06:03:22;;;;;;;17.33;15.75;;;3.00;84.90;;;;;;5173420;28;20051;-70
2021/01/30 06:06:08;;;;;;;16.25;15.10;;;3.10;85.30;;;;;;5146324;28;20400;-70
2021/01/30 06:08:54;;;;;;;15.73;14.52;;;3.10;85.20;;;;;;5142670;28;20637;-70
2021/01/30 06:11:27;;;;;;;15.57;14.30;;;3.10;85.20;;;;;;5145295;28;20051;-71
2021/01/30 06:14:02;;;;;;;15.60;14.50;;;3.10;85.00;;;;;;5144388;28;20112;-71
2021/01/30 06:16:46;;;;;;;16.42;15.02;;;3.20;84.80;;;;;;5163260;28;20717;-71
2021/01/30 06:19:20;;;;;;;16.10;14.88;;;3.10;85.00;;;;;;5144943;28;20042;-70
2021/01/30 06:22:19;;;;;;;16.20;15.05;;;3.10;85.40;;;;;;5142204;28;20054;-71
2021/01/30 06:24:51;;;;;;;15.80;14.60;;;3.00;85.30;;;;;;5147237;28;20057;-71
2021/01/30 06:27:25;;;;;;;16.65;15.35;;;3.00;85.00;;;;;;5174832;28;20054;-70
2021/01/30 06:30:08;;;;;;;16.20;15.02;;;3.10;84.70;;;;;;5148536;28;20054;-70
2021/01/30 06:32:47;;;;;;;16.38;15.18;;;3.10;84.50;;;;;;5143127;28;20090;-70
2021/01/30 06:35:19;;;;;;;16.35;15.15;;;3.00;85.70;;;;;;5157463;28;20059;-72
2021/01/30 06:38:00;;;;;;;16.27;15.07;;;3.00;85.60;;;;;;5156220;28;20055;-71
2021/01/30 06:40:36;;;;;;;16.65;15.30;;;3.00;85.50;;;;;;5161979;28;20066;-72
2021/01/30 06:43:15;;;;;;;16.27;15.00;;;3.00;85.30;;;;;;5147161;28;20042;-71
2021/01/30 06:45:46;;;;;;;15.93;14.63;;;3.10;85.50;;;;;;5157784;28;20038;-72
2021/01/30 06:48:36;;;;;;;16.17;14.90;;;3.10;85.40;;;;;;5181367;28;20078;-72
2021/01/30 06:51:43;;;;;;;16.10;14.90;;;3.10;84.90;;;;;;5147859;28;20459;-72
2021/01/30 06:54:18;;;;;;;14.60;13.50;;;3.20;84.40;;;;;;5101573;28;20053;-71
2021/01/30 06:56:59;;;;;;;15.07;13.77;;;3.20;84.00;;;;;;5142974;28;20046;-73
2021/01/30 06:59:36;;;;;;;15.43;14.13;;;3.20;83.80;;;;;;5175854;28;20046;-73
2021/01/30 07:02:15;;;;;;;15.73;14.43;;;3.20;84.90;;;;;;5176859;28;20101;-71
2021/01/30 07:04:58;;;;;;;15.95;14.65;;;3.10;85.10;;;;;;5175778;28;20038;-72
2021/01/30 07:07:37;;;;;;;15.77;14.48;;;3.20;84.80;;;;;;5172274;28;20045;-73
2021/01/30 07:10:41;;;;;;;15.60;14.50;;;3.20;85.30;;;;;;5134819;28;20426;-71
2021/01/30 07:13:38;;;;;;;15.63;14.23;;;3.20;84.70;;;;;;5140236;28;20053;-72
2021/01/30 07:16:41;;;;;;;15.90;14.60;;;3.20;84.30;;;;;;5145140;28;20042;-72
2021/01/30 07:19:42;;;;;;;15.85;14.55;;;3.20;84.40;;;;;;5130493;28;20054;-72
2021/01/30 07:22:42;;;;;;;15.30;13.98;;;3.20;84.40;;;;;;5142295;28;20407;-72
2021/01/30 07:25:19;;;;;;;16.35;14.75;;;3.20;84.30;;;;;;5142867;28;20652;-72
2021/01/30 07:28:12;;;;;;;15.32;14.05;;;3.10;85.00;;;;;;5146623;28;20141;-74
2021/01/30 07:30:46;;;;;;;15.73;14.48;;;3.10;84.90;;;;;;5145021;28;20042;-72
2021/01/30 07:33:27;;;;;;;14.73;13.55;;;3.00;85.70;;;;;;5178452;28;20054;-71
2021/01/30 07:36:11;;;;;;;14.82;13.68;;;3.00;85.80;;;;;;5143685;28;20089;-70
2021/01/30 07:39:07;;;;;;;14.93;13.82;;;3.10;85.90;;;;;;5174067;28;20090;-70
2021/01/30 07:41:58;;;;;;;16.98;15.48;;;3.10;85.90;;;;;;5144544;28;20042;-70
2021/01/30 07:44:56;;;;;;;17.42;15.93;;;3.20;85.50;;;;;;5142953;28;20133;-70
2021/01/30 07:47:52;;;;;;;15.20;14.10;;;3.20;85.10;;;;;;5113313;28;20046;-70
2021/01/30 07:50:31;;;;;;;20.17;18.38;;;3.30;84.90;;;;;;5145057;28;20054;-70
2021/01/30 07:53:17;;;;;;;;;;;3.30;84.90;;;;;;5159432;28;20653;-72
2021/01/30 07:56:14;;;;;;;15.77;14.40;;;3.40;85.10;;;;;;5144341;28;20373;-72
2021/01/30 07:59:22;;;;;;;15.98;14.60;;;3.40;84.60;;;;;;5142302;28;20059;-70
2021/01/30 08:02:31;;;;;;;15.98;14.77;;;3.40;83.80;;;;;;5148977;28;20070;-71
2021/01/30 08:05:15;;;;;;;15.43;14.23;;;3.50;84.60;;;;;;5147025;28;20043;-72
2021/01/30 08:07:55;;;;;;;15.18;13.98;;;3.60;84.50;;;;;;5180271;28;20058;-71
2021/01/30 08:10:29;;;;;;;15.38;14.15;;;3.60;84.20;;;;;;5160498;28;20407;-72
2021/01/30 08:13:14;;;;;;;15.68;14.40;;;3.60;84.10;;;;;;5181790;28;20070;-72
2021/01/30 08:16:07;;;;;;;15.93;14.73;;;3.60;84.70;;;;;;5154639;28;20050;-71
2021/01/30 08:18:41;;;;;;;15.38;14.18;;;3.80;84.20;;;;;;5152624;28;20042;-72
2021/01/30 08:21:34;;;;;;;15.13;13.93;;;3.80;83.70;;;;;;5184604;28;20047;-73
2021/01/30 08:24:25;;;;;;;15.45;14.15;;;3.80;83.60;;;;;;5153651;28;20117;-73
2021/01/30 08:27:10;;;;;;;15.82;14.63;;;3.90;84.10;;;;;;5169195;28;20105;-71
2021/01/30 08:29:45;;;;;;;15.93;14.73;;;4.00;83.30;;;;;;5156039;28;20743;-72
2021/01/30 08:32:23;;;;;;;16.17;14.88;;;4.00;82.20;;;;;;5183471;28;20848;-72
2021/01/30 08:34:57;;;;;;;16.15;14.95;;;4.00;82.50;;;;;;5154944;28;20077;-70
2021/01/30 08:37:29;;;;;;;15.75;14.55;;;4.10;83.30;;;;;;5182080;28;20047;-70
2021/01/30 08:40:15;;;;;;;16.35;15.15;;;4.30;83.50;;;;;;5163184;28;20054;-74
2021/01/30 08:42:57;;;;;;;16.58;15.27;;;4.40;83.10;;;;;;5148263;28;20050;-72
2021/01/30 08:45:31;;;;;;;16.98;15.68;;;4.50;82.70;;;;;;5147215;28;20042;-71
2021/01/30 08:48:09;;;;;;;34.72;24.52;;;4.60;82.30;;;;;;5147288;28;20065;-72
2021/01/30 08:50:48;;;;;;;17.88;16.38;;;4.60;81.30;;;;;;5150863;28;20137;-72
2021/01/30 08:53:23;;;;;;;111.80;77.00;;;4.60;81.30;;;;;;5151137;28;20058;-72
2021/01/30 08:56:04;;;;;;;96.00;71.35;;;4.70;81.30;;;;;;5149082;28;20752;-72
2021/01/30 08:58:39;;;;;;;27.08;24.45;;;4.60;79.70;;;;;;5147583;28;20054;-72
2021/01/30 09:01:36;;;;;;;31.95;28.65;;;4.60;80.20;;;;;;5184576;28;20038;-72
2021/01/30 09:04:41;;;;;;;18.25;16.75;;;4.70;80.80;;;;;;5149393;28;20161;-70
2021/01/30 09:07:41;;;;;;;16.63;15.43;;;4.70;80.30;;;;;;5146977;28;20057;-71
2021/01/30 09:10:12;;;;;;;38.42;32.70;;;4.80;80.40;;;;;;5132544;28;20062;-70
2021/01/30 09:12:49;;;;;;;32.45;28.95;;;5.00;80.70;;;;;;5153891;28;20043;-72
2021/01/30 09:15:40;;;;;;;25.05;22.80;;;5.10;81.00;;;;;;5147815;28;20050;-71
2021/01/30 09:18:36;;;;;;;17.90;16.50;;;5.20;79.10;;;;;;5146898;28;20785;-70
2021/01/30 09:21:34;;;;;;;16.80;15.60;;;5.30;79.80;;;;;;5147699;28;20066;-71
2021/01/30 09:24:39;;;;;;;17.02;15.77;;;5.40;79.50;;;;;;5144752;28;20050;-70
2021/01/30 09:27:33;;;;;;;17.65;16.17;;;5.50;79.40;;;;;;5156359;28;20070;-70
2021/01/30 09:30:31;;;;;;;18.33;16.83;;;5.50;78.20;;;;;;5152579;28;20065;-73
2021/01/30 09:33:32;;;;;;;16.40;15.02;;;5.40;79.00;;;;;;5145502;28;20129;-70
2021/01/30 09:36:15;;;;;;;14.98;13.77;;;5.40;77.20;;;;;;5147166;28;20050;-71
2021/01/30 09:38:49;;;;;;;16.38;15.07;;;5.50;78.80;;;;;;5148708;28;20031;-70
2021/01/30 09:41:30;;;;;;;17.05;15.75;;;5.50;78.20;;;;;;5162758;28;20061;-70
2021/01/30 09:44:16;;;;;;;23.58;21.50;;;5.60;78.30;;;;;;5178913;28;20082;-70
2021/01/30 09:46:56;;;;;;;18.15;16.55;;;5.60;77.10;;;;;;5144650;28;20786;-70
2021/01/30 09:49:41;;;;;;;19.08;17.27;;;5.60;77.70;;;;;;5161852;28;20557;-70
2021/01/30 09:52:15;;;;;;;19.13;17.42;;;5.70;77.80;;;;;;5149066;28;20046;-72
2021/01/30 09:54:55;;;;;;;18.20;16.70;;;5.70;77.10;;;;;;5144719;28;20073;-70
2021/01/30 09:57:28;;;;;;;18.52;17.02;;;5.80;77.90;;;;;;5180357;28;20046;-72
2021/01/30 10:00:03;;;;;;;44.35;39.60;;;5.90;77.90;;;;;;5157795;28;20379;-71
2021/01/30 10:02:43;;;;;;;21.83;20.02;;;6.00;76.60;;;;;;5143488;28;20046;-71
2021/01/30 10:05:16;;;;;;;22.20;20.20;;;6.00;77.00;;;;;;5147258;28;20149;-71
2021/01/30 10:07:48;;;;;;;20.10;18.50;;;6.10;77.40;;;;;;5178615;28;20671;-73
2021/01/30 10:10:22;;;;;;;19.02;17.55;;;6.20;77.20;;;;;;5164120;28;20136;-71
2021/01/30 10:12:56;;;;;;;23.88;21.98;;;6.30;76.40;;;;;;5147457;28;20049;-70
2021/01/30 10:15:33;;;;;;;28.88;26.63;;;6.30;75.10;;;;;;5150804;28;20054;-70
2021/01/30 10:18:14;;;;;;;20.13;18.55;;;6.40;75.90;;;;;;5153210;28;20065;-70
2021/01/30 10:20:56;;;;;;;17.52;16.08;;;6.70;76.10;;;;;;5149792;28;20042;-70
2021/01/30 10:23:35;;;;;;;16.98;15.68;;;6.80;74.00;;;;;;5147450;28;20170;-72
2021/01/30 10:26:10;;;;;;;16.65;15.35;;;6.90;73.60;;;;;;5175318;28;20125;-70
2021/01/30 10:28:46;;;;;;;17.15;15.85;;;6.90;73.90;;;;;;5148159;28;20042;-71
2021/01/30 10:31:25;;;;;;;17.23;15.82;;;6.90;74.50;;;;;;5163855;28;20042;-70
2021/01/30 10:34:20;;;;;;;16.63;15.27;;;6.90;73.90;;;;;;5177879;28;20101;-70
2021/01/30 10:36:56;;;;;;;16.65;15.25;;;7.00;73.10;;;;;;5148190;28;20450;-70
2021/01/30 10:39:32;;;;;;;17.27;15.77;;;6.90;72.90;;;;;;5143903;28;20049;-70
2021/01/30 10:42:09;;;;;;;16.95;15.45;;;6.80;74.00;;;;;;5183557;28;20045;-70
2021/01/30 10:44:45;;;;;;;17.52;16.13;;;6.90;75.00;;;;;;5147197;28;20050;-70
2021/01/30 10:47:23;;;;;;;17.95;16.45;;;7.00;75.60;;;;;;5149834;28;20054;-72
2021/01/30 10:50:14;;;;;;;17.55;16.15;;;7.00;74.20;;;;;;5143203;28;20046;-70
2021/01/30 10:52:45;;;;;;;17.23;15.73;;;7.00;73.20;;;;;;5145399;28;20069;-72
2021/01/30 10:55:37;;;;;;;17.92;16.40;;;6.90;73.90;;;;;;5184152;28;20050;-71
2021/01/30 10:58:27;;;;;;;16.23;15.00;;;6.90;74.40;;;;;;5151724;28;20043;-70
2021/01/30 11:00:59;;;;;;;;;;;6.90;72.70;;;;;;5146991;28;20525;-69
2021/01/30 11:03:54;;;;;;;16.63;15.13;;;6.80;72.20;;;;;;5164384;28;19976;-69
2021/01/30 11:06:47;;;;;;;16.80;15.50;;;6.80;73.50;;;;;;5146427;28;20055;-70
2021/01/30 11:09:33;;;;;;;16.15;14.85;;;6.80;74.60;;;;;;5145568;28;20045;-72
2021/01/30 11:12:23;;;;;;;16.90;15.60;;;6.80;74.50;;;;;;5176589;28;20064;-69
2021/01/30 11:14:54;;;;;;;17.48;16.17;;;6.90;73.90;;;;;;5159608;28;20051;-71
2021/01/30 11:17:30;;;;;;;16.35;15.05;;;6.90;73.40;;;;;;5151127;28;20171;-70
2021/01/30 11:20:04;;;;;;;16.98;15.60;;;6.90;73.40;;;;;;5147309;28;20038;-71
2021/01/30 11:22:35;;;;;;;17.02;15.57;;;6.90;73.20;;;;;;5160720;28;20109;-70
2021/01/30 11:25:09;;;;;;;15.68;14.48;;;6.80;73.10;;;;;;5161162;28;20061;-70
2021/01/30 11:27:46;;;;;;;15.57;14.18;;;6.80;74.00;;;;;;5144611;28;20458;-72
2021/01/30 11:30:23;;;;;;;15.52;14.35;;;6.80;75.10;;;;;;5147381;28;20064;-71
2021/01/30 11:33:14;;;;;;;16.20;14.90;;;6.90;72.60;;;;;;5148798;28;20633;-71
2021/01/30 11:35:52;;;;;;;16.08;14.85;;;7.00;73.60;;;;;;5143856;28;20881;-71
2021/01/30 11:38:27;;;;;;;16.58;15.27;;;7.00;72.20;;;;;;5159665;28;20080;-69
2021/01/30 11:41:00;;;;;;;15.82;14.70;;;7.00;72.70;;;;;;5142923;28;20050;-69
2021/01/30 11:43:32;;;;;;;16.25;14.80;;;7.10;73.10;;;;;;5170225;28;20442;-73
2021/01/30 11:46:03;;;;;;;15.77;14.48;;;7.20;72.60;;;;;;5177569;28;20038;-71
2021/01/30 11:48:35;;;;;;;15.65;14.40;;;7.10;73.30;;;;;;5151944;28;20125;-69
2021/01/30 11:51:11;;;;;;;16.38;15.05;;;7.10;72.40;;;;;;5166104;28;20046;-69
2021/01/30 11:53:42;;;;;;;15.30;14.10;;;7.20;72.80;;;;;;5145457;28;20035;-68
2021/01/30 11:56:13;;;;;;;14.73;13.63;;;7.20;71.50;;;;;;5151814;28;20037;-69
2021/01/30 11:58:45;;;;;;;14.90;13.70;;;7.20;69.50;;;;;;5147575;28;20387;-69
2021/01/30 12:01:18;;;;;;;14.60;13.30;;;7.10;69.70;;;;;;5179694;28;20061;-70
2021/01/30 12:03:50;;;;;;;15.20;14.07;;;7.20;71.60;;;;;;5146355;28;20047;-69
2021/01/30 12:06:22;;;;;;;18.58;14.10;;;7.30;72.00;;;;;;5148104;28;20524;-70
2021/01/30 12:08:53;;;;;;;15.68;14.38;;;7.40;72.60;;;;;;5147974;28;20050;-69
2021/01/30 12:11:25;;;;;;;15.00;13.80;;;7.40;72.30;;;;;;5166109;28;20109;-70
2021/01/30 12:13:56;;;;;;;15.55;13.90;;;7.50;72.20;;;;;;5156715;28;20042;-69
2021/01/30 12:16:28;;;;;;;15.38;14.00;;;7.60;71.10;;;;;;5147033;28;20051;-69
2021/01/30 12:19:00;;;;;;;14.43;13.32;;;7.60;70.50;;;;;;5146755;28;20065;-68
2021/01/30 12:21:32;;;;;;;14.88;13.30;;;7.50;69.30;;;;;;5144651;28;20101;-71
2021/01/30 12:24:03;;;;;;;14.63;13.63;;;7.50;69.90;;;;;;5177552;28;20043;-71
2021/01/30 12:26:35;;;;;;;15.07;13.88;;;7.50;69.90;;;;;;5148235;28;20058;-69
2021/01/30 12:29:06;;;;;;;15.90;14.68;;;7.40;70.50;;;;;;5145725;28;20050;-69
2021/01/30 12:31:38;;;;;;;15.27;14.13;;;7.40;71.00;;;;;;5148830;28;20053;-69
2021/01/30 12:34:09;;;;;;;15.95;14.55;;;7.30;70.20;;;;;;5147742;28;20054;-68
2021/01/30 12:36:41;;;;;;;15.55;14.25;;;7.30;70.90;;;;;;5146661;28;20050;-69
2021/01/30 12:39:13;;;;;;;14.77;13.57;;;7.40;70.50;;;;;;5178953;28;20130;-69
2021/01/30 12:41:44;;;;;;;15.07;13.77;;;7.40;71.50;;;;;;5146212;28;20410;-69
2021/01/30 12:44:22;;;;;;;14.65;13.55;;;7.40;70.60;;;;;;5149843;28;20592;-68
2021/01/30 12:46:54;;;;;;;13.57;12.57;;;7.20;68.90;;;;;;5177226;28;20060;-68
2021/01/30 12:49:25;;;;;;;14.00;12.93;;;7.20;67.30;;;;;;5178335;28;20124;-69
2021/01/30 12:51:57;;;;;;;14.15;13.15;;;7.10;70.00;;;;;;5178549;28;20049;-69
2021/01/30 12:54:28;;;;;;;13.45;12.55;;;7.20;69.10;;;;;;5150916;28;20097;-68
2021/01/30 12:57:00;;;;;;;14.65;13.55;;;7.10;68.10;;;;;;5141152;28;20047;-69
2021/01/30 12:59:31;;;;;;;14.10;13.10;;;7.10;70.90;;;;;;5176945;28;20053;-69
2021/01/30 13:02:03;;;;;;;14.73;13.63;;;7.10;71.70;;;;;;5144791;28;20876;-68
2021/01/30 13:04:35;;;;;;;14.50;13.27;;;7.20;70.90;;;;;;5176251;28;20240;-68
2021/01/30 13:07:07;;;;;;;13.50;12.45;;;7.20;71.50;;;;;;5153051;28;20766;-68
2021/01/30 13:09:38;;;;;;;14.00;13.00;;;7.20;71.30;;;;;;5148393;28;20965;-68
2021/01/30 13:12:10;;;;;;;14.48;13.48;;;7.20;71.30;;;;;;5181802;28;20054;-69
2021/01/30 13:14:42;;;;;;;14.05;12.95;;;7.10;71.30;;;;;;5180596;28;20053;-68
2021/01/30 13:17:14;;;;;;;13.75;12.75;;;7.10;71.40;;;;;;5180290;28;20038;-68
2021/01/30 13:19:46;;;;;;;14.63;13.63;;;7.10;71.80;;;;;;5155326;28;20045;-68
2021/01/30 13:22:21;;;;;;;13.85;12.85;;;6.90;69.90;;;;;;5180871;28;20602;-67
2021/01/30 13:24:53;;;;;;;13.63;12.63;;;6.80;70.40;;;;;;5182255;28;20718;-70
2021/01/30 13:27:24;;;;;;;14.27;13.27;;;6.70;71.90;;;;;;5151970;28;20043;-67
2021/01/30 13:29:56;;;;;;;14.10;13.10;;;6.60;72.30;;;;;;5147463;28;20587;-69
2021/01/30 13:32:28;;;;;;;14.15;13.15;;;6.60;72.90;;;;;;5161234;28;20501;-68
2021/01/30 13:35:00;;;;;;;14.45;13.45;;;6.50;73.60;;;;;;5153965;28;20101;-68
2021/01/30 13:37:33;;;;;;;13.85;12.85;;;6.40;74.00;;;;;;5157918;28;20038;-69
2021/01/30 13:40:06;;;;;;;13.50;12.55;;;6.30;74.10;;;;;;5152999;28;20049;-68